ボストン の空港の天気 - METARとTAF

ジェネラル・エドワード・ローレンス・ローガン国際空港 ( KBOS / BOS ) - アメリカ マサチューセッツ州ボストン
飛行場実況気象(Metar)
観測時間02/05 15:54 EST (02/05 20:54 UTC)
風向・風速南西 7m/s
視程10km以上
天気現象
少しの雲 雲底高度 6100m
全天の8割程度の雲 雲底高度 7620m
気温10℃
湿度33%
気圧1015.8hPa
METARKBOS 052054Z 22013KT 10SM FEW200 BKN250 10/M06 A3000 RMK AO2 SLP158 T01001056 56016
過去の天気等 Google飛行場航空写真 Wunderground天気予報

過去48時間のMETAR

飛行場予報(TAF)
発表時間: 2/05 15:58 EST (2/05 20:58 UTC)
予報対象時間: 5日16時 EST ~ 6日19時 EST
風向・風速南西 7m/s
視程10km以上
全天の4割程度の雲 雲底高度 7620m
5日17時 EST から
風向・風速南西 5m/s
視程10km以上
全天の8割程度の雲 雲底高度 6100m
6日5時 EST から
風向・風速西 2m/s
視程10km以上
全天の8割程度の雲 雲底高度 4570m
6日8時 EST から
風向・風速北北西 5m/s
視程10km以上
全天の4割程度の雲 雲底高度 6100m
6日17時 EST から
風向・風速北 7m/s 瞬間風速 11m/s
視程10km以上
全天の4割程度の雲 雲底高度 6100m
KBOS 052058Z 0521/0624 22014KT P6SM SCT250
FM052200 22009KT P6SM BKN200
FM061000 26004KT P6SM BKN150
FM061300 33009KT P6SM SCT200
FM062200 36013G22KT P6SM SCT200